createdAt,value
2023-08-12T00:00:44.179Z,88.49
2023-08-12T00:03:11.576Z,88.27
2023-08-12T00:05:41.170Z,88.91
2023-08-12T00:08:08.448Z,89.08
2023-08-12T00:10:35.791Z,89.41
2023-08-12T00:13:03.289Z,89.24
2023-08-12T00:15:32.040Z,89.33
2023-08-12T00:17:59.367Z,89.26
2023-08-12T00:20:26.750Z,88.49
2023-08-12T00:22:53.995Z,88.46
2023-08-12T00:25:21.289Z,88.65
2023-08-12T00:27:48.693Z,88.96
2023-08-12T00:30:17.111Z,88.82
2023-08-12T00:32:45.920Z,88.97
2023-08-12T00:35:13.241Z,88.65
2023-08-12T00:37:40.633Z,89.22
2023-08-12T00:40:09.082Z,88.91
2023-08-12T00:42:36.648Z,89.26
2023-08-12T00:45:05.271Z,89.29
2023-08-12T00:47:32.723Z,89.31
2023-08-12T00:50:01.793Z,89.25
2023-08-12T00:52:29.348Z,89.49
2023-08-12T00:54:56.693Z,89.05
2023-08-12T00:57:24.110Z,89.74
2023-08-12T00:59:51.512Z,89.35
2023-08-12T01:02:18.947Z,89.45
2023-08-12T01:04:46.332Z,89.10
2023-08-12T01:07:15.135Z,89.85
2023-08-12T01:09:42.612Z,89.19
2023-08-12T01:12:14.898Z,89.47
2023-08-12T01:14:47.192Z,89.83
2023-08-12T01:17:16.575Z,90.10
2023-08-12T01:19:46.165Z,88.85
2023-08-12T01:22:15.604Z,89.24
2023-08-12T01:24:45.208Z,89.23
2023-08-12T01:27:14.085Z,90.02
2023-08-12T01:29:45.378Z,90.08
2023-08-12T01:32:22.920Z,89.90
2023-08-12T01:34:55.068Z,89.96
2023-08-12T01:37:26.911Z,90.25
2023-08-12T01:39:57.998Z,90.19
2023-08-12T01:42:26.320Z,89.99
2023-08-12T01:44:53.994Z,90.11
2023-08-12T01:47:21.286Z,90.42
2023-08-12T01:49:48.593Z,89.92
2023-08-12T01:52:16.561Z,90.52
2023-08-12T01:54:43.876Z,90.58
2023-08-12T01:57:12.962Z,90.69
2023-08-12T01:59:40.541Z,90.39
2023-08-12T02:02:08.648Z,90.75
2023-08-12T02:04:37.864Z,91.61
2023-08-12T02:07:05.560Z,90.67
2023-08-12T02:09:33.036Z,91.25
2023-08-12T02:12:00.362Z,91.12
2023-08-12T02:14:29.101Z,91.57
2023-08-12T02:16:56.421Z,91.23
2023-08-12T02:19:23.635Z,91.59
2023-08-12T02:21:50.912Z,90.34
2023-08-12T02:24:18.249Z,89.82
2023-08-12T02:26:45.501Z,90.01
2023-08-12T02:29:12.794Z,90.22
2023-08-12T02:31:41.502Z,90.47
2023-08-12T02:34:08.733Z,90.73
2023-08-12T02:36:35.988Z,90.95
2023-08-12T02:39:03.417Z,90.96
2023-08-12T02:41:30.709Z,89.87
2023-08-12T02:43:58.112Z,90.05
2023-08-12T02:46:26.760Z,91.24
2023-08-12T02:48:55.478Z,90.55
2023-08-12T02:51:22.931Z,91.01
2023-08-12T02:53:50.208Z,90.73
2023-08-12T02:56:17.467Z,91.59
2023-08-12T02:58:44.780Z,91.17
2023-08-12T03:01:12.143Z,91.59
2023-08-12T03:03:39.627Z,91.36
2023-08-12T03:06:08.388Z,91.32
2023-08-12T03:08:35.650Z,91.51
2023-08-12T03:11:03.866Z,91.54
2023-08-12T03:13:31.350Z,91.80
2023-08-12T03:15:58.977Z,91.72
2023-08-12T03:18:26.463Z,91.72
2023-08-12T03:20:53.758Z,91.52
2023-08-12T03:23:22.490Z,91.73
2023-08-12T03:25:49.728Z,91.97
2023-08-12T03:28:17.507Z,91.86
2023-08-12T03:30:52.046Z,91.80
2023-08-12T03:33:19.480Z,91.81
2023-08-12T03:35:47.527Z,91.90
2023-08-12T03:38:14.801Z,92.65
2023-08-12T03:40:43.794Z,91.71
2023-08-12T03:43:11.179Z,91.41
2023-08-12T03:45:42.304Z,91.61
2023-08-12T03:48:09.656Z,91.97
2023-08-12T03:50:37.338Z,91.96
2023-08-12T03:53:05.503Z,92.38
2023-08-12T03:55:33.460Z,91.72
2023-08-12T03:58:02.753Z,91.44
2023-08-12T04:00:30.096Z,92.09
2023-08-12T04:02:57.576Z,92.41
2023-08-12T04:05:25.027Z,92.30
2023-08-12T04:07:52.320Z,92.13
2023-08-12T04:10:19.776Z,92.00
2023-08-12T04:12:47.056Z,91.69
2023-08-12T04:15:15.792Z,91.21
2023-08-12T04:17:43.062Z,91.99
2023-08-12T04:20:10.964Z,91.53
2023-08-12T04:22:38.330Z,90.76
2023-08-12T04:25:06.940Z,90.84
2023-08-12T04:27:34.391Z,90.44
2023-08-12T04:30:01.734Z,90.95
2023-08-12T04:32:30.426Z,91.07
2023-08-12T04:34:57.734Z,90.99
2023-08-12T04:37:25.952Z,90.53
2023-08-12T04:39:53.229Z,90.92
2023-08-12T04:42:20.475Z,91.24
2023-08-12T04:44:47.674Z,89.91
2023-08-12T04:47:15.101Z,89.73
2023-08-12T04:49:43.731Z,88.96
2023-08-12T04:52:10.977Z,89.86
2023-08-12T04:54:38.336Z,90.76
2023-08-12T04:57:06.853Z,89.99
2023-08-12T04:59:34.175Z,89.46
2023-08-12T05:02:17.658Z,90.47
2023-08-12T05:04:48.864Z,90.38
2023-08-12T05:07:16.201Z,89.93
2023-08-12T05:09:45.349Z,89.79
2023-08-12T05:12:13.282Z,89.90
2023-08-12T05:14:41.365Z,89.49
2023-08-12T05:17:08.905Z,89.03
2023-08-12T05:19:36.379Z,88.80
2023-08-12T05:22:05.358Z,89.25
2023-08-12T05:24:32.907Z,88.67
2023-08-12T05:27:00.193Z,87.78
2023-08-12T05:29:27.502Z,88.44
2023-08-12T05:31:54.942Z,87.91
2023-08-12T05:34:22.242Z,87.39
2023-08-12T05:36:49.615Z,87.87
2023-08-12T05:39:19.457Z,87.32
2023-08-12T05:41:47.579Z,87.73
2023-08-12T05:44:15.250Z,86.20
2023-08-12T05:46:42.511Z,86.14
2023-08-12T05:49:09.903Z,86.44
2023-08-12T05:51:37.182Z,86.51
2023-08-12T05:54:04.794Z,85.99
2023-08-12T05:56:33.541Z,86.32
2023-08-12T05:59:00.801Z,86.00
2023-08-12T06:01:28.106Z,86.37
2023-08-12T06:03:55.618Z,86.02
2023-08-12T06:06:24.038Z,85.40
2023-08-12T06:08:51.348Z,85.13
2023-08-12T06:11:18.684Z,84.67
2023-08-12T06:13:47.402Z,84.90
2023-08-12T06:16:14.745Z,85.10
2023-08-12T06:18:42.105Z,84.92
2023-08-12T06:21:09.421Z,84.90
2023-08-12T06:23:36.732Z,84.37
2023-08-12T06:26:04.055Z,84.38
2023-08-12T06:28:31.458Z,83.89
2023-08-12T06:31:01.258Z,83.99
2023-08-12T06:33:28.488Z,83.91
2023-08-12T06:35:55.845Z,84.10
2023-08-12T06:38:23.156Z,84.02
2023-08-12T06:40:50.487Z,84.23
2023-08-12T06:43:17.977Z,84.80
2023-08-12T06:45:45.356Z,84.90
2023-08-12T06:48:14.072Z,83.41
2023-08-12T06:50:41.472Z,83.71
2023-08-12T06:53:08.844Z,83.30
2023-08-12T06:55:37.247Z,82.99
2023-08-12T06:58:04.868Z,83.18
2023-08-12T07:00:32.156Z,82.78
2023-08-12T07:02:59.472Z,83.57
2023-08-12T07:05:28.278Z,84.07
2023-08-12T07:07:55.453Z,83.47
2023-08-12T07:10:24.238Z,82.89
2023-08-12T07:12:51.629Z,81.92
2023-08-12T07:15:18.991Z,79.72
2023-08-12T07:17:46.462Z,77.68
2023-08-12T07:20:13.827Z,76.42
2023-08-12T07:22:42.554Z,76.86
2023-08-12T07:25:10.943Z,74.35
2023-08-12T07:27:38.435Z,73.60
2023-08-12T07:30:09.919Z,72.57
2023-08-12T07:32:38.798Z,73.00
2023-08-12T07:35:09.741Z,74.20
2023-08-12T07:37:37.313Z,74.17
2023-08-12T07:40:07.034Z,71.42
2023-08-12T07:42:34.958Z,71.86
2023-08-12T07:45:02.231Z,70.66
2023-08-12T07:47:30.097Z,72.24
2023-08-12T07:49:57.418Z,71.97
2023-08-12T07:52:24.720Z,70.68
2023-08-12T07:54:54.385Z,70.95
2023-08-12T07:57:25.335Z,71.95
2023-08-12T07:59:52.677Z,72.11
2023-08-12T08:02:19.988Z,70.59
2023-08-12T08:04:50.398Z,68.72
2023-08-12T08:07:18.126Z,66.67
2023-08-12T08:09:45.723Z,67.62
2023-08-12T08:12:13.569Z,69.15
2023-08-12T08:14:42.710Z,70.79
2023-08-12T08:17:11.483Z,72.02
2023-08-12T08:19:39.031Z,70.60
2023-08-12T08:22:06.370Z,69.88
2023-08-12T08:24:33.730Z,69.54
2023-08-12T08:27:01.130Z,70.53
2023-08-12T08:29:28.455Z,70.84
2023-08-12T08:31:57.070Z,70.77
2023-08-12T08:34:24.442Z,69.82
2023-08-12T08:36:52.742Z,70.17
2023-08-12T08:39:20.170Z,71.02
2023-08-12T08:41:49.780Z,71.01
2023-08-12T08:44:18.110Z,70.29
2023-08-12T08:46:47.098Z,68.85
2023-08-12T08:49:16.598Z,68.04
2023-08-12T08:51:44.810Z,69.57
2023-08-12T08:54:13.187Z,66.69
2023-08-12T08:56:45.313Z,63.20
2023-08-12T08:59:15.579Z,65.92
2023-08-12T09:01:45.262Z,63.21
2023-08-12T09:04:13.441Z,61.86
2023-08-12T09:06:43.693Z,60.82
2023-08-12T09:09:15.755Z,61.46
2023-08-12T09:11:43.071Z,59.77
2023-08-12T09:14:10.413Z,62.13
2023-08-12T09:16:37.757Z,59.30
2023-08-12T09:19:06.083Z,55.80
2023-08-12T09:21:33.413Z,56.61
2023-08-12T09:24:04.736Z,56.14
2023-08-12T09:26:32.060Z,56.34
2023-08-12T09:29:00.423Z,56.95
2023-08-12T09:31:29.542Z,54.69
2023-08-12T09:33:59.732Z,54.42
2023-08-12T09:36:31.188Z,56.28
2023-08-12T09:38:59.703Z,55.69
2023-08-12T09:41:29.708Z,56.71
2023-08-12T09:43:58.350Z,53.98
2023-08-12T09:46:25.790Z,55.44
2023-08-12T09:48:53.981Z,53.18
2023-08-12T09:51:23.621Z,55.14
2023-08-12T09:53:51.479Z,56.10
2023-08-12T09:56:21.863Z,56.11
2023-08-12T09:58:51.600Z,54.30
2023-08-12T10:01:21.999Z,53.51
2023-08-12T10:03:51.473Z,51.55
2023-08-12T10:06:19.487Z,53.80
2023-08-12T10:08:47.763Z,50.23
2023-08-12T10:11:15.772Z,52.32
2023-08-12T10:13:43.571Z,54.23
2023-08-12T10:16:14.171Z,50.77
2023-08-12T10:18:42.336Z,49.79
2023-08-12T10:21:12.265Z,50.91
2023-08-12T10:23:40.342Z,49.50
2023-08-12T10:26:08.465Z,51.59
2023-08-12T10:28:38.617Z,52.64
2023-08-12T10:31:07.337Z,50.02
2023-08-12T10:33:39.004Z,49.62
2023-08-12T10:36:07.441Z,47.67
2023-08-12T10:38:35.372Z,51.01
2023-08-12T10:41:19.562Z,48.66
2023-08-12T10:43:54.706Z,49.47
2023-08-12T10:46:30.674Z,48.64
2023-08-12T10:49:03.759Z,48.39
2023-08-12T10:51:48.299Z,49.77
2023-08-12T10:54:17.280Z,49.93
2023-08-12T10:57:07.289Z,51.55
2023-08-12T10:59:54.764Z,48.59
2023-08-12T11:02:27.381Z,49.15
2023-08-12T11:04:58.006Z,47.67
2023-08-12T11:07:33.757Z,49.67
2023-08-12T11:10:06.350Z,49.46
2023-08-12T11:12:35.788Z,49.98
2023-08-12T11:15:05.489Z,45.74
2023-08-12T11:17:37.342Z,46.42
2023-08-12T11:20:08.081Z,44.50
2023-08-12T11:22:38.595Z,46.94
2023-08-12T11:25:09.918Z,45.04
2023-08-12T11:27:41.951Z,46.14
2023-08-12T11:30:13.230Z,42.25
2023-08-12T11:32:41.209Z,43.83
2023-08-12T11:35:12.202Z,46.78
2023-08-12T11:37:40.682Z,42.88
2023-08-12T11:40:10.506Z,43.09
2023-08-12T11:42:40.142Z,40.11
2023-08-12T11:45:08.825Z,46.65
2023-08-12T11:47:36.567Z,42.42
2023-08-12T11:50:04.970Z,43.54
2023-08-12T11:52:38.735Z,44.26
2023-08-12T11:55:09.278Z,43.96
2023-08-12T11:57:36.854Z,40.71
2023-08-12T12:00:14.623Z,42.57
2023-08-12T12:02:48.125Z,40.52
2023-08-12T12:05:16.164Z,40.48
2023-08-12T12:07:45.316Z,41.55
2023-08-12T12:10:14.656Z,42.48
2023-08-12T12:12:45.970Z,39.96
2023-08-12T12:15:15.090Z,40.72
2023-08-12T12:17:42.507Z,38.72
2023-08-12T12:20:13.356Z,39.48
2023-08-12T12:22:47.282Z,38.16
2023-08-12T12:25:15.973Z,37.37
2023-08-12T12:27:44.346Z,38.32
2023-08-12T12:30:13.971Z,38.08
2023-08-12T12:32:41.460Z,38.24
2023-08-12T12:35:09.314Z,39.23
2023-08-12T12:37:37.455Z,37.29
2023-08-12T12:40:08.589Z,38.82
2023-08-12T12:42:36.282Z,40.61
2023-08-12T12:45:03.931Z,42.07
2023-08-12T12:47:31.592Z,38.85
2023-08-12T12:49:58.995Z,36.95
2023-08-12T12:52:26.290Z,36.36
2023-08-12T12:54:53.639Z,38.85
2023-08-12T12:57:22.332Z,37.56
2023-08-12T12:59:49.731Z,39.34
2023-08-12T13:02:17.507Z,41.19
2023-08-12T13:04:46.215Z,44.71
2023-08-12T13:07:13.621Z,44.60
2023-08-12T13:09:42.156Z,44.43
2023-08-12T13:12:09.720Z,44.52
2023-08-12T13:14:38.444Z,45.16
2023-08-12T13:17:05.763Z,47.61
2023-08-12T13:19:33.221Z,47.19
2023-08-12T13:22:03.256Z,48.05
2023-08-12T13:24:30.565Z,47.28
2023-08-12T13:27:00.259Z,49.35
2023-08-12T13:29:27.855Z,48.86
2023-08-12T13:31:56.558Z,47.49
2023-08-12T13:34:24.095Z,51.23
2023-08-12T13:36:51.387Z,49.05
2023-08-12T13:39:19.157Z,49.59
2023-08-12T13:41:46.424Z,49.66
2023-08-12T13:44:14.212Z,50.46
2023-08-12T13:46:41.497Z,50.30
2023-08-12T13:49:10.357Z,51.96
2023-08-12T13:51:37.885Z,47.90
2023-08-12T13:54:06.020Z,50.25
2023-08-12T13:56:33.341Z,52.98
2023-08-12T13:59:00.696Z,53.33
2023-08-12T14:01:28.095Z,49.86
2023-08-12T14:03:55.443Z,53.86
2023-08-12T14:06:24.176Z,50.80
2023-08-12T14:08:51.451Z,51.16
2023-08-12T14:11:18.943Z,53.54
2023-08-12T14:13:46.204Z,53.24
2023-08-12T14:16:13.608Z,54.06
2023-08-12T14:18:41.068Z,54.01
2023-08-12T14:21:08.393Z,55.15
2023-08-12T14:23:37.161Z,53.63
2023-08-12T14:26:04.389Z,54.97
2023-08-12T14:28:31.718Z,54.35
2023-08-12T14:30:59.288Z,55.38
2023-08-12T14:33:27.282Z,53.64
2023-08-12T14:35:55.575Z,54.21
2023-08-12T14:38:23.000Z,55.82
2023-08-12T14:40:51.809Z,55.38
2023-08-12T14:43:19.176Z,55.26
2023-08-12T14:45:48.791Z,55.41
2023-08-12T14:48:19.557Z,55.43
2023-08-12T14:50:46.861Z,55.67
2023-08-12T14:53:14.274Z,55.99
2023-08-12T14:55:42.186Z,54.79
2023-08-12T14:58:10.962Z,55.62
2023-08-12T15:00:38.461Z,54.35
2023-08-12T15:03:06.114Z,55.34
2023-08-12T15:05:33.595Z,53.16
2023-08-12T15:08:01.801Z,56.11
2023-08-12T15:11:44.960Z,54.89
2023-08-12T15:14:13.714Z,56.51
2023-08-12T15:16:41.078Z,55.16
2023-08-12T15:19:08.503Z,56.13
2023-08-12T15:21:35.862Z,56.91
2023-08-12T15:24:03.303Z,55.83
2023-08-12T15:26:32.887Z,57.03
2023-08-12T15:29:00.419Z,55.07
2023-08-12T15:31:29.789Z,58.00
2023-08-12T15:33:57.062Z,55.30
2023-08-12T15:36:24.420Z,57.62
2023-08-12T15:38:51.684Z,56.09
2023-08-12T15:41:19.213Z,55.61
2023-08-12T15:43:46.514Z,56.67
2023-08-12T15:46:13.999Z,57.60
2023-08-12T15:48:44.053Z,56.57
2023-08-12T15:51:11.556Z,56.89
2023-08-12T15:53:38.887Z,58.74
2023-08-12T15:56:06.194Z,58.21
2023-08-12T15:58:33.608Z,57.28
2023-08-12T16:01:01.004Z,55.83
2023-08-12T16:03:28.374Z,57.90
2023-08-12T16:06:02.339Z,57.21
2023-08-12T16:08:29.880Z,56.01
2023-08-12T16:10:57.186Z,58.35
2023-08-12T16:13:24.580Z,57.06
2023-08-12T16:15:52.020Z,57.83
2023-08-12T16:18:19.394Z,59.55
2023-08-12T16:20:46.729Z,57.57
2023-08-12T16:23:15.485Z,56.70
2023-08-12T16:25:42.904Z,57.53
2023-08-12T16:28:10.261Z,59.12
2023-08-12T16:30:37.598Z,57.41
2023-08-12T16:33:05.615Z,58.88
2023-08-12T16:35:33.123Z,58.91
2023-08-12T16:38:00.465Z,58.24
2023-08-12T16:40:29.328Z,57.25
2023-08-12T16:42:56.641Z,58.04
2023-08-12T16:45:24.021Z,59.69
2023-08-12T16:47:51.442Z,59.36
2023-08-12T16:50:18.934Z,59.63
2023-08-12T16:52:46.238Z,60.03
2023-08-12T16:55:13.545Z,60.75
2023-08-12T16:57:42.283Z,61.11
2023-08-12T17:00:11.912Z,60.92
2023-08-12T17:02:39.269Z,61.00
2023-08-12T17:05:08.263Z,61.02
2023-08-12T17:07:35.517Z,60.89
2023-08-12T17:10:02.913Z,61.73
2023-08-12T17:12:30.599Z,61.87
2023-08-12T17:14:59.481Z,62.86
2023-08-12T17:17:27.233Z,62.85
2023-08-12T17:19:54.666Z,62.87
2023-08-12T17:22:22.347Z,64.08
2023-08-12T17:24:49.707Z,64.58
2023-08-12T17:27:17.027Z,64.59
2023-08-12T17:29:44.334Z,64.62
2023-08-12T17:32:13.345Z,64.86
2023-08-12T17:34:40.842Z,64.95
2023-08-12T17:37:08.256Z,64.39
2023-08-12T17:39:36.542Z,64.89
2023-08-12T17:42:04.007Z,65.36
2023-08-12T17:44:33.953Z,65.72
2023-08-12T17:50:06.923Z,66.47
2023-08-12T17:52:34.921Z,66.71
2023-08-12T17:55:02.153Z,67.04
2023-08-12T17:57:29.507Z,66.91
2023-08-12T17:59:56.724Z,67.73
2023-08-12T18:02:24.306Z,68.13
2023-08-12T18:04:51.633Z,68.51
2023-08-12T18:07:20.307Z,69.12
2023-08-12T18:09:47.622Z,69.61
2023-08-12T18:12:15.130Z,70.47
2023-08-12T18:14:42.606Z,71.88
2023-08-12T18:17:09.984Z,72.86
2023-08-12T18:19:37.641Z,73.56
2023-08-12T18:22:05.115Z,74.09
2023-08-12T18:24:33.808Z,75.40
2023-08-12T18:27:01.392Z,75.56
2023-08-12T18:29:29.461Z,76.55
2023-08-12T18:31:56.732Z,76.89
2023-08-12T18:34:24.119Z,76.93
2023-08-12T18:36:51.402Z,77.46
2023-08-12T18:39:18.800Z,78.38
2023-08-12T18:41:47.487Z,78.98
2023-08-12T18:44:14.829Z,79.72
2023-08-12T18:46:42.306Z,79.64
2023-08-12T18:49:09.604Z,79.83
2023-08-12T18:51:36.930Z,79.85
2023-08-12T18:54:05.430Z,79.97
2023-08-12T18:56:32.723Z,80.15
2023-08-12T18:59:01.446Z,80.34
2023-08-12T19:01:28.959Z,80.14
2023-08-12T19:03:56.347Z,80.25
2023-08-12T19:06:23.648Z,80.64
2023-08-12T19:08:51.272Z,80.61
2023-08-12T19:11:22.091Z,80.66
2023-08-12T19:13:49.459Z,81.03
2023-08-12T19:16:18.307Z,81.12
2023-08-12T19:18:45.610Z,81.50
2023-08-12T19:21:12.926Z,81.62
2023-08-12T19:23:40.477Z,82.45
2023-08-12T19:26:07.811Z,81.52
2023-08-12T19:28:35.145Z,81.71
2023-08-12T19:31:02.818Z,81.90
2023-08-12T19:33:31.684Z,82.82
2023-08-12T19:35:59.030Z,83.10
2023-08-12T19:38:26.368Z,83.44
2023-08-12T19:40:55.179Z,83.38
2023-08-12T19:43:22.503Z,83.64
2023-08-12T19:45:50.024Z,82.82
2023-08-12T19:48:18.109Z,82.99
2023-08-12T19:50:48.004Z,83.74
2023-08-12T19:53:15.459Z,83.79
2023-08-12T19:55:42.749Z,83.37
2023-08-12T19:58:10.042Z,83.56
2023-08-12T20:00:37.382Z,83.33
2023-08-12T20:03:05.247Z,84.36
2023-08-12T20:05:33.015Z,84.58
2023-08-12T20:08:01.863Z,85.22
2023-08-12T20:10:29.237Z,85.40
2023-08-12T20:12:56.549Z,85.54
2023-08-12T20:15:24.213Z,85.13
2023-08-12T20:17:51.467Z,85.44
2023-08-12T20:20:19.004Z,85.76
2023-08-12T20:23:03.035Z,85.41
2023-08-12T20:25:36.836Z,85.55
2023-08-12T20:28:05.356Z,85.69
2023-08-12T20:30:35.618Z,85.96
2023-08-12T20:33:04.292Z,85.89
2023-08-12T20:35:32.362Z,85.33
2023-08-12T20:37:59.847Z,86.37
2023-08-12T20:40:27.214Z,85.86
2023-08-12T20:42:55.930Z,85.28
2023-08-12T20:45:24.978Z,84.98
2023-08-12T20:47:52.392Z,84.90
2023-08-12T20:50:19.917Z,84.95
2023-08-12T20:52:47.298Z,85.39
2023-08-12T20:55:14.638Z,85.76
2023-08-12T20:57:41.894Z,86.08
2023-08-12T21:00:13.472Z,85.78
2023-08-12T21:02:44.493Z,85.57
2023-08-12T21:05:11.899Z,85.68
2023-08-12T21:07:39.190Z,85.86
2023-08-12T21:10:07.324Z,85.99
2023-08-12T21:12:34.881Z,86.08
2023-08-12T21:15:02.202Z,86.01
2023-08-12T21:17:31.010Z,85.80
2023-08-12T21:19:59.111Z,85.78
2023-08-12T21:22:26.475Z,85.13
2023-08-12T21:24:53.814Z,85.81
2023-08-12T21:27:21.122Z,85.74
2023-08-12T21:29:48.369Z,85.63
2023-08-12T21:32:15.814Z,85.90
2023-08-12T21:34:44.770Z,86.28
2023-08-12T21:37:12.187Z,86.82
2023-08-12T21:39:39.486Z,86.38
2023-08-12T21:42:07.192Z,86.84
2023-08-12T21:44:34.494Z,86.93
2023-08-12T21:47:01.814Z,87.70
2023-08-12T21:49:29.136Z,87.66
2023-08-12T21:51:57.957Z,87.59
2023-08-12T21:54:25.236Z,87.50
2023-08-12T21:56:52.515Z,87.80
2023-08-12T21:59:20.418Z,88.05
2023-08-12T22:01:48.691Z,87.85
2023-08-12T22:04:16.104Z,87.72
2023-08-12T22:06:44.341Z,87.94
2023-08-12T22:09:13.235Z,88.32
2023-08-12T22:11:40.524Z,87.79
2023-08-12T22:14:08.351Z,88.32
2023-08-12T22:16:35.700Z,88.39
2023-08-12T22:19:03.336Z,88.70
2023-08-12T22:21:30.655Z,88.91
2023-08-12T22:23:58.009Z,88.82
2023-08-12T22:26:26.782Z,88.96
2023-08-12T22:28:54.121Z,88.99
2023-08-12T22:31:21.891Z,89.48
2023-08-12T22:33:49.265Z,89.44
2023-08-12T22:36:16.612Z,89.43
2023-08-12T22:38:44.004Z,89.30
2023-08-12T22:41:11.283Z,89.34
2023-08-12T22:43:40.032Z,88.80
2023-08-12T22:46:07.349Z,88.87
2023-08-12T22:48:34.691Z,89.27
2023-08-12T22:51:02.255Z,90.47
2023-08-12T22:53:29.637Z,90.29
2023-08-12T22:55:56.934Z,89.97
2023-08-12T22:58:42.664Z,90.23
2023-08-12T23:01:10.412Z,90.59
2023-08-12T23:03:37.875Z,90.53
2023-08-12T23:06:05.378Z,90.61
2023-08-12T23:08:32.890Z,90.81
2023-08-12T23:11:00.431Z,90.82
2023-08-12T23:13:27.824Z,90.96
2023-08-12T23:15:56.716Z,90.77
2023-08-12T23:18:26.793Z,90.50
2023-08-12T23:20:54.201Z,89.69
2023-08-12T23:23:21.691Z,90.15
2023-08-12T23:25:49.084Z,90.29
2023-08-12T23:28:16.404Z,90.49
2023-08-12T23:30:43.715Z,90.83
2023-08-12T23:33:13.076Z,90.63
2023-08-12T23:35:41.709Z,90.69
2023-08-12T23:38:09.482Z,90.91
2023-08-12T23:40:36.873Z,90.68
2023-08-12T23:43:04.579Z,90.91
2023-08-12T23:45:31.888Z,90.59
2023-08-12T23:47:59.286Z,89.95
2023-08-12T23:50:28.263Z,90.53
2023-08-12T23:52:55.664Z,90.19
2023-08-12T23:55:23.294Z,89.77
2023-08-12T23:57:50.625Z,90.14
